createdAt,value
2019-01-02T00:00:29.172Z,3.00
2019-01-02T00:02:59.754Z,3.00
2019-01-02T00:05:30.365Z,2.90
2019-01-02T00:08:00.917Z,2.90
2019-01-02T00:10:31.865Z,2.90
2019-01-02T00:13:02.384Z,2.80
2019-01-02T00:15:33.271Z,2.80
2019-01-02T00:18:03.960Z,2.80
2019-01-02T00:20:34.573Z,2.80
2019-01-02T00:23:05.189Z,2.80
2019-01-02T00:25:35.701Z,2.80
2019-01-02T00:28:06.465Z,2.80
2019-01-02T00:30:37.040Z,2.80
2019-01-02T00:33:07.734Z,2.70
2019-01-02T00:35:38.230Z,2.70
2019-01-02T00:38:08.680Z,2.70
2019-01-02T00:40:39.223Z,2.70
2019-01-02T00:43:09.847Z,2.70
2019-01-02T00:45:42.249Z,2.90
2019-01-02T00:48:12.740Z,2.90
2019-01-02T00:50:43.383Z,2.80
2019-01-02T00:53:13.902Z,2.90
2019-01-02T00:55:44.782Z,2.90
2019-01-02T00:58:15.331Z,2.90
2019-01-02T01:00:47.598Z,3.00
2019-01-02T01:03:18.129Z,2.80
2019-01-02T01:05:48.942Z,2.80
2019-01-02T01:08:19.531Z,2.90
2019-01-02T01:10:52.584Z,2.80
2019-01-02T01:13:23.210Z,2.80
2019-01-02T01:15:54.197Z,2.80
2019-01-02T01:18:24.650Z,2.80
2019-01-02T01:20:55.410Z,2.80
2019-01-02T01:23:25.939Z,2.80
2019-01-02T01:25:56.353Z,2.80
2019-01-02T01:28:27.238Z,2.90
2019-01-02T01:30:57.809Z,2.90
2019-01-02T01:33:28.533Z,2.90
2019-01-02T01:35:59.090Z,2.80
2019-01-02T01:38:29.587Z,2.90
2019-01-02T01:41:00.710Z,3.00
2019-01-02T01:43:31.254Z,3.00
2019-01-02T01:46:02.661Z,2.90
2019-01-02T01:48:33.468Z,2.80
2019-01-02T01:51:04.012Z,2.50
2019-01-02T01:53:34.511Z,2.70
2019-01-02T01:56:05.352Z,2.70
2019-01-02T01:58:35.839Z,2.70
2019-01-02T02:01:06.722Z,2.70
2019-01-02T02:03:37.283Z,2.70
2019-01-02T02:06:07.782Z,2.70
2019-01-02T02:08:38.524Z,2.70
2019-01-02T02:11:09.026Z,2.70
2019-01-02T02:13:39.515Z,2.70
2019-01-02T02:16:10.471Z,2.70
2019-01-02T02:18:41.035Z,2.70
2019-01-02T02:21:12.445Z,2.70
2019-01-02T02:23:42.994Z,2.70
2019-01-02T02:26:13.495Z,2.90
2019-01-02T02:28:44.165Z,2.80
2019-01-02T02:31:14.570Z,2.70
2019-01-02T02:33:46.051Z,2.80
2019-01-02T02:36:16.948Z,3.00
2019-01-02T02:38:47.851Z,2.70
2019-01-02T02:41:18.798Z,2.90
2019-01-02T02:43:49.560Z,2.70
2019-01-02T02:46:21.166Z,2.70
2019-01-02T02:48:51.628Z,2.70
2019-01-02T02:51:22.478Z,2.50
2019-01-02T02:53:53.845Z,2.70
2019-01-02T02:56:24.601Z,2.70
2019-01-02T02:58:55.231Z,2.70
2019-01-02T03:01:25.979Z,2.80
2019-01-02T03:03:56.752Z,2.90
2019-01-02T03:06:27.503Z,2.80
2019-01-02T03:08:58.369Z,2.70
2019-01-02T03:11:29.506Z,2.80
2019-01-02T03:14:05.027Z,2.80
2019-01-02T03:16:35.540Z,2.70
2019-01-02T03:19:06.437Z,2.70
2019-01-02T03:21:38.629Z,2.60
2019-01-02T03:24:13.085Z,2.70
2019-01-02T03:26:44.118Z,2.70
2019-01-02T03:29:14.959Z,2.70
2019-01-02T03:31:45.648Z,2.70
2019-01-02T03:34:19.953Z,2.60
2019-01-02T03:36:50.543Z,2.80
2019-01-02T03:39:21.146Z,2.60
2019-01-02T03:41:52.120Z,2.70
2019-01-02T03:44:22.666Z,2.70
2019-01-02T03:46:54.174Z,2.70
2019-01-02T03:49:24.788Z,2.70
2019-01-02T03:51:55.261Z,2.70
2019-01-02T03:54:25.711Z,2.60
2019-01-02T03:56:56.360Z,2.80
2019-01-02T03:59:26.769Z,2.60
2019-01-02T04:01:57.349Z,2.60
2019-01-02T04:04:27.959Z,2.60
2019-01-02T04:06:58.367Z,2.60
2019-01-02T04:09:28.963Z,2.50
2019-01-02T04:11:59.823Z,2.50
2019-01-02T04:14:30.765Z,2.50
2019-01-02T04:17:01.715Z,2.50
2019-01-02T04:19:32.129Z,2.40
2019-01-02T04:22:02.548Z,2.40
2019-01-02T04:24:32.951Z,2.40
2019-01-02T04:27:03.427Z,2.40
2019-01-02T04:29:33.813Z,2.40
2019-01-02T04:32:04.433Z,2.40
2019-01-02T04:34:34.932Z,2.40
2019-01-02T04:37:05.599Z,2.30
2019-01-02T04:39:37.368Z,2.30
2019-01-02T04:42:08.107Z,2.20
2019-01-02T04:44:38.587Z,2.10
2019-01-02T04:47:09.912Z,2.20
2019-01-02T04:49:40.360Z,2.10
2019-01-02T04:52:10.855Z,2.10
2019-01-02T04:54:41.270Z,2.00
2019-01-02T04:57:11.736Z,2.00
2019-01-02T04:59:42.182Z,2.00
2019-01-02T05:02:12.852Z,1.90
2019-01-02T05:04:43.379Z,1.90
2019-01-02T05:07:13.976Z,1.60
2019-01-02T05:09:44.537Z,1.90
2019-01-02T05:12:15.371Z,1.80
2019-01-02T05:14:45.964Z,1.80
2019-01-02T05:17:16.750Z,1.80
2019-01-02T05:19:47.166Z,1.90
2019-01-02T05:22:17.649Z,1.60
2019-01-02T05:24:48.102Z,1.70
2019-01-02T05:27:18.574Z,1.80
2019-01-02T05:29:49.206Z,1.80
2019-01-02T05:32:19.798Z,1.70
2019-01-02T05:34:50.340Z,1.70
2019-01-02T05:37:20.911Z,1.80
2019-01-02T05:39:51.404Z,1.80
2019-01-02T05:42:22.090Z,1.80
2019-01-02T05:44:52.582Z,1.80
2019-01-02T05:47:24.008Z,1.80
2019-01-02T05:49:54.462Z,1.80
2019-01-02T05:52:25.691Z,1.90
2019-01-02T05:54:56.979Z,1.90
2019-01-02T05:57:27.767Z,1.90
2019-01-02T05:59:58.714Z,1.90
2019-01-02T06:02:30.310Z,2.00
2019-01-02T06:05:00.864Z,2.00
2019-01-02T06:07:31.511Z,1.80
2019-01-02T06:10:02.215Z,1.70
2019-01-02T06:12:34.092Z,1.80
2019-01-02T06:15:07.276Z,1.80
2019-01-02T06:17:38.093Z,1.80
2019-01-02T06:20:14.529Z,1.90
2019-01-02T06:22:45.178Z,1.80
2019-01-02T06:25:15.774Z,1.80
2019-01-02T06:27:46.420Z,1.80
2019-01-02T06:30:16.926Z,1.80
2019-01-02T06:32:48.059Z,1.80
2019-01-02T06:35:18.615Z,1.80
2019-01-02T06:37:49.120Z,1.80
2019-01-02T06:40:19.603Z,1.80
2019-01-02T06:42:50.363Z,1.80
2019-01-02T06:45:20.799Z,1.80
2019-01-02T06:47:52.033Z,1.80
2019-01-02T06:50:23.219Z,1.80
2019-01-02T06:52:53.785Z,1.90
2019-01-02T06:55:25.060Z,1.90
2019-01-02T06:57:55.538Z,1.90
2019-01-02T07:00:29.435Z,1.90
2019-01-02T07:02:59.997Z,1.90
2019-01-02T07:05:30.391Z,2.00
2019-01-02T07:08:00.815Z,2.00
2019-01-02T07:10:31.200Z,2.00
2019-01-02T07:13:02.000Z,2.20
2019-01-02T07:15:32.479Z,2.40
2019-01-02T07:18:02.982Z,2.20
2019-01-02T07:20:33.493Z,2.30
2019-01-02T07:23:04.035Z,2.30
2019-01-02T07:25:34.488Z,2.30
2019-01-02T07:28:05.068Z,2.30
2019-01-02T07:30:35.617Z,2.30
2019-01-02T07:33:06.174Z,2.40
2019-01-02T07:35:57.522Z,2.50
2019-01-02T07:38:47.634Z,2.50
2019-01-02T07:41:31.116Z,2.60
2019-01-02T07:44:18.162Z,2.50
2019-01-02T07:47:07.815Z,2.50
2019-01-02T07:50:22.027Z,2.40
2019-01-02T07:53:11.413Z,2.40
2019-01-02T07:56:06.254Z,2.40
2019-01-02T07:59:16.752Z,2.40
2019-01-02T08:02:15.464Z,2.50
2019-01-02T08:05:20.156Z,2.50
2019-01-02T08:08:34.337Z,2.60
2019-01-02T08:11:27.052Z,2.60
2019-01-02T08:14:37.976Z,2.60
2019-01-02T08:17:27.710Z,2.70
2019-01-02T08:20:26.257Z,2.60
2019-01-02T08:23:01.253Z,2.50
2019-01-02T08:26:19.375Z,2.60
2019-01-02T08:29:39.904Z,2.60
2019-01-02T08:32:32.671Z,2.70
2019-01-02T08:35:10.539Z,2.70
2019-01-02T08:37:54.055Z,2.80
2019-01-02T08:40:59.948Z,2.70
2019-01-02T08:43:43.938Z,2.80
2019-01-02T08:46:31.779Z,2.70
2019-01-02T08:49:19.523Z,2.60
2019-01-02T08:52:10.224Z,2.60
2019-01-02T08:55:15.197Z,2.70
2019-01-02T08:58:33.334Z,2.80
2019-01-02T09:01:30.510Z,3.00
2019-01-02T09:04:23.341Z,2.70
2019-01-02T09:07:19.742Z,2.90
2019-01-02T09:10:18.438Z,2.90
2019-01-02T09:13:11.972Z,3.10
2019-01-02T09:16:24.274Z,3.00
2019-01-02T09:19:19.395Z,3.30
2019-01-02T09:22:05.182Z,3.20
2019-01-02T09:24:57.981Z,3.40
2019-01-02T09:27:44.453Z,3.40
2019-01-02T09:30:52.369Z,3.50
2019-01-02T09:33:35.843Z,3.60
2019-01-02T09:36:53.602Z,3.60
2019-01-02T09:39:40.391Z,3.50
2019-01-02T09:43:05.735Z,3.50
2019-01-02T09:45:58.228Z,3.50
2019-01-02T09:48:48.215Z,3.60
2019-01-02T09:52:05.038Z,3.60
2019-01-02T09:55:20.277Z,3.50
2019-01-02T09:58:26.391Z,3.80
2019-01-02T10:01:15.903Z,3.60
2019-01-02T10:04:25.308Z,3.60
2019-01-02T10:07:22.420Z,3.70
2019-01-02T10:10:06.066Z,3.70
2019-01-02T10:13:02.341Z,3.70
2019-01-02T10:15:59.244Z,3.80
2019-01-02T10:18:53.500Z,3.90
2019-01-02T10:21:56.629Z,3.90
2019-01-02T10:25:04.372Z,3.90
2019-01-02T10:28:04.490Z,3.90
2019-01-02T10:31:15.360Z,3.80
2019-01-02T10:34:01.658Z,3.80
2019-01-02T10:37:00.598Z,3.90
2019-01-02T10:39:53.600Z,3.90
2019-01-02T10:42:50.400Z,4.00
2019-01-02T10:45:58.118Z,3.90
2019-01-02T10:48:38.985Z,3.80
2019-01-02T10:51:25.786Z,3.80
2019-01-02T10:54:09.341Z,3.70
2019-01-02T10:56:45.197Z,3.70
2019-01-02T10:59:48.652Z,3.70
2019-01-02T11:02:43.932Z,3.60
2019-01-02T11:05:41.317Z,3.50
2019-01-02T11:08:24.773Z,3.50
2019-01-02T11:11:17.545Z,3.40
2019-01-02T11:14:01.621Z,3.40
2019-01-02T11:17:06.919Z,3.40
2019-01-02T11:19:57.104Z,3.40
2019-01-02T11:23:00.331Z,3.50
2019-01-02T11:26:19.985Z,3.50
2019-01-02T11:29:15.723Z,3.50
2019-01-02T11:32:18.723Z,3.50
2019-01-02T11:35:09.704Z,3.70
2019-01-02T11:38:06.991Z,4.00
2019-01-02T11:41:01.618Z,4.10
2019-01-02T11:43:54.629Z,4.00
2019-01-02T11:46:25.144Z,4.00
2019-01-02T11:48:56.993Z,3.90
2019-01-02T11:51:27.681Z,3.90
2019-01-02T11:53:58.178Z,4.00
2019-01-02T11:56:28.759Z,4.00
2019-01-02T11:58:59.315Z,4.10
2019-01-02T12:01:32.814Z,4.20
2019-01-02T12:04:03.750Z,4.10
2019-01-02T12:06:34.605Z,4.10
2019-01-02T12:09:08.280Z,4.00
2019-01-02T12:11:39.019Z,4.10
2019-01-02T12:14:09.734Z,4.10
2019-01-02T12:16:43.166Z,4.10
2019-01-02T12:19:14.320Z,4.10
2019-01-02T12:21:47.247Z,4.10
2019-01-02T12:24:18.031Z,4.10
2019-01-02T12:26:49.199Z,3.90
2019-01-02T12:29:20.290Z,3.90
2019-01-02T12:31:51.239Z,3.80
2019-01-02T12:34:23.862Z,3.70
2019-01-02T12:37:00.948Z,3.80
2019-01-02T12:39:33.225Z,3.80
2019-01-02T12:42:03.835Z,3.80
2019-01-02T12:44:34.669Z,3.80
2019-01-02T12:47:05.702Z,3.80
2019-01-02T12:49:36.622Z,3.80
2019-01-02T12:52:07.211Z,3.80
2019-01-02T12:54:38.316Z,3.90
2019-01-02T12:57:08.692Z,3.90
2019-01-02T12:59:40.252Z,3.90
2019-01-02T13:02:22.500Z,4.00
2019-01-02T13:05:12.613Z,4.00
2019-01-02T13:08:36.232Z,4.00
2019-01-02T13:11:11.465Z,4.00
2019-01-02T13:14:13.275Z,3.80
2019-01-02T13:16:50.829Z,3.90
2019-01-02T13:19:57.123Z,3.80
2019-01-02T13:22:38.153Z,3.90
2019-01-02T13:25:18.911Z,3.80
2019-01-02T13:27:56.460Z,3.90
2019-01-02T13:31:01.134Z,4.00
2019-01-02T13:33:52.711Z,3.90
2019-01-02T13:36:30.797Z,3.80
2019-01-02T13:39:08.611Z,3.80
2019-01-02T13:41:56.453Z,3.80
2019-01-02T13:44:45.571Z,3.80
2019-01-02T13:47:45.727Z,3.70
2019-01-02T13:50:29.521Z,3.70
2019-01-02T13:53:03.085Z,3.70
2019-01-02T13:55:33.591Z,3.70
2019-01-02T13:58:06.207Z,3.70
2019-01-02T14:00:37.525Z,3.50
2019-01-02T14:03:08.354Z,3.60
2019-01-02T14:05:39.346Z,3.60
2019-01-02T14:08:13.219Z,3.60
2019-01-02T14:10:43.720Z,3.60
2019-01-02T14:13:15.923Z,3.60
2019-01-02T14:15:46.489Z,3.60
2019-01-02T14:18:18.716Z,3.50
2019-01-02T14:20:49.259Z,3.40
2019-01-02T14:23:19.754Z,3.40
2019-01-02T14:25:50.443Z,3.30
2019-01-02T14:28:21.513Z,3.20
2019-01-02T14:30:52.004Z,3.20
2019-01-02T14:33:22.829Z,3.10
2019-01-02T14:35:53.423Z,3.00
2019-01-02T14:38:25.627Z,3.00
2019-01-02T14:40:56.513Z,2.90
2019-01-02T14:43:27.058Z,2.90
2019-01-02T14:45:57.606Z,2.80
2019-01-02T14:48:28.267Z,2.70
2019-01-02T14:50:59.764Z,2.70
2019-01-02T14:53:33.443Z,2.60
2019-01-02T14:56:04.251Z,2.70
2019-01-02T14:58:34.831Z,2.60
2019-01-02T15:01:06.248Z,2.50
2019-01-02T15:03:37.746Z,2.50
2019-01-02T15:06:08.306Z,2.40
2019-01-02T15:08:39.130Z,2.30
2019-01-02T15:11:11.371Z,2.30
2019-01-02T15:13:42.238Z,2.30
2019-01-02T15:16:14.057Z,2.30
2019-01-02T15:18:44.896Z,2.20
2019-01-02T15:21:15.500Z,2.20
2019-01-02T15:23:45.992Z,2.10
2019-01-02T15:26:16.919Z,2.20
2019-01-02T15:28:47.442Z,2.20
2019-01-02T15:31:21.161Z,2.20
2019-01-02T15:33:51.916Z,2.30
2019-01-02T15:36:22.584Z,2.30
2019-01-02T15:38:53.464Z,2.40
2019-01-02T15:41:24.495Z,2.30
2019-01-02T15:43:55.584Z,2.30
2019-01-02T15:46:26.124Z,2.30
2019-01-02T15:48:56.591Z,2.20
2019-01-02T15:51:27.136Z,2.20
2019-01-02T15:53:57.786Z,2.20
2019-01-02T15:56:29.000Z,2.10
2019-01-02T15:58:59.471Z,2.00
2019-01-02T16:01:30.853Z,2.00
2019-01-02T16:04:01.324Z,2.10
2019-01-02T16:06:31.929Z,1.90
2019-01-02T16:09:02.336Z,1.90
2019-01-02T16:11:32.920Z,1.90
2019-01-02T16:14:03.352Z,1.90
2019-01-02T16:16:33.912Z,1.90
2019-01-02T16:19:04.450Z,1.80
2019-01-02T16:21:36.136Z,1.80
2019-01-02T16:24:06.571Z,1.80
2019-01-02T16:26:37.042Z,1.80
2019-01-02T16:29:07.923Z,1.80
2019-01-02T16:31:38.599Z,1.80
2019-01-02T16:34:09.185Z,1.70
2019-01-02T16:36:39.605Z,1.60
2019-01-02T16:39:10.214Z,1.40
2019-01-02T16:41:40.688Z,1.60
2019-01-02T16:44:11.273Z,1.60
2019-01-02T16:46:42.260Z,1.60
2019-01-02T16:49:13.832Z,1.60
2019-01-02T16:51:44.369Z,1.60
2019-01-02T16:54:15.534Z,1.70
2019-01-02T16:56:46.165Z,1.70
2019-01-02T16:59:17.673Z,1.60
2019-01-02T17:01:49.518Z,1.50
2019-01-02T17:04:20.132Z,1.70
2019-01-02T17:06:50.621Z,1.70
2019-01-02T17:09:21.537Z,1.70
2019-01-02T17:11:52.440Z,1.70
2019-01-02T17:14:22.951Z,1.60
2019-01-02T17:16:53.485Z,1.60
2019-01-02T17:19:24.992Z,1.60
2019-01-02T17:21:56.099Z,1.50
2019-01-02T17:24:26.762Z,1.50
2019-01-02T17:26:57.242Z,1.50
2019-01-02T17:29:27.750Z,1.40
2019-01-02T17:31:58.240Z,1.40
2019-01-02T17:34:28.817Z,1.30
2019-01-02T17:36:59.400Z,1.20
2019-01-02T17:39:30.835Z,1.30
2019-01-02T17:42:03.244Z,1.20
2019-01-02T17:44:34.004Z,1.20
2019-01-02T17:47:05.492Z,1.30
2019-01-02T17:49:37.048Z,1.30
2019-01-02T17:52:07.747Z,1.20
2019-01-02T17:54:38.813Z,1.20
2019-01-02T17:57:09.816Z,1.20
2019-01-02T17:59:40.397Z,1.30
2019-01-02T18:02:12.091Z,1.20
2019-01-02T18:04:44.303Z,1.20
2019-01-02T18:07:14.719Z,1.20
2019-01-02T18:09:45.478Z,1.10
2019-01-02T18:12:16.890Z,1.10
2019-01-02T18:14:50.347Z,1.10
2019-01-02T18:17:21.048Z,1.10
2019-01-02T18:19:51.767Z,1.00
2019-01-02T18:22:23.610Z,1.00
2019-01-02T18:24:56.072Z,1.00
2019-01-02T18:27:26.843Z,1.00
2019-01-02T18:29:58.443Z,1.10
2019-01-02T18:32:29.476Z,1.00
2019-01-02T18:35:01.163Z,1.00
2019-01-02T18:37:32.670Z,1.00
2019-01-02T18:40:07.519Z,1.00
2019-01-02T18:42:39.690Z,0.90
2019-01-02T18:45:10.735Z,0.70
2019-01-02T18:47:43.587Z,0.70
2019-01-02T18:50:15.427Z,0.90
2019-01-02T18:52:48.049Z,0.70
2019-01-02T18:55:19.210Z,0.70
2019-01-02T18:57:49.813Z,0.80
2019-01-02T19:00:24.219Z,0.80
2019-01-02T19:02:56.198Z,0.90
2019-01-02T19:05:29.628Z,0.90
2019-01-02T19:08:03.582Z,0.80
2019-01-02T19:10:33.765Z,0.70
2019-01-02T19:13:07.655Z,0.70
2019-01-02T19:15:38.930Z,0.60
2019-01-02T19:18:09.444Z,0.60
2019-01-02T19:20:40.014Z,0.60
2019-01-02T19:23:10.711Z,0.50
2019-01-02T19:25:43.352Z,0.50
2019-01-02T19:28:13.777Z,0.50
2019-01-02T19:30:46.451Z,0.50
2019-01-02T19:33:16.976Z,0.50
2019-01-02T19:35:50.806Z,0.50
2019-01-02T19:38:21.596Z,0.60
2019-01-02T19:40:52.420Z,0.60
2019-01-02T19:43:22.933Z,0.60
2019-01-02T19:45:54.816Z,0.60
2019-01-02T19:48:25.346Z,0.60
2019-01-02T19:50:59.293Z,0.60
2019-01-02T19:53:29.709Z,0.60
2019-01-02T19:56:00.174Z,0.60
2019-01-02T19:58:30.649Z,0.60
2019-01-02T20:01:01.233Z,0.30
2019-01-02T20:03:33.365Z,0.80
2019-01-02T20:06:06.847Z,0.60
2019-01-02T20:08:37.783Z,0.60
2019-01-02T20:11:08.485Z,0.60
2019-01-02T20:13:38.936Z,0.50
2019-01-02T20:16:09.513Z,0.50
2019-01-02T20:18:39.991Z,0.50
2019-01-02T20:21:10.483Z,0.50
2019-01-02T20:23:41.049Z,0.50
2019-01-02T20:26:11.679Z,0.40
2019-01-02T20:28:42.318Z,0.40
2019-01-02T20:31:15.042Z,0.40
2019-01-02T20:33:45.532Z,0.30
2019-01-02T20:36:16.049Z,0.40
2019-01-02T20:38:46.946Z,0.30
2019-01-02T20:41:17.774Z,0.40
2019-01-02T20:43:48.317Z,0.30
2019-01-02T20:46:18.945Z,0.30
2019-01-02T20:48:49.397Z,0.30
2019-01-02T20:51:21.024Z,0.30
2019-01-02T20:53:51.514Z,0.20
2019-01-02T20:56:21.916Z,0.00
2019-01-02T20:58:52.437Z,0.00
2019-01-02T21:01:22.921Z,0.10
2019-01-02T21:03:54.303Z,0.00
2019-01-02T21:06:24.801Z,-0.10
2019-01-02T21:08:55.377Z,-0.10
2019-01-02T21:11:26.148Z,-0.20
2019-01-02T21:13:56.640Z,-0.20
2019-01-02T21:16:27.149Z,-0.20
2019-01-02T21:18:57.686Z,-0.20
2019-01-02T21:21:31.255Z,-0.20
2019-01-02T21:24:01.812Z,-0.20
2019-01-02T21:26:32.308Z,-0.20
2019-01-02T21:29:02.884Z,-0.10
2019-01-02T21:31:33.367Z,-0.20
2019-01-02T21:34:03.987Z,-0.20
2019-01-02T21:36:34.647Z,-0.30
2019-01-02T21:39:06.272Z,-0.30
2019-01-02T21:41:37.113Z,-0.40
2019-01-02T21:44:07.503Z,-0.30
2019-01-02T21:46:37.973Z,-0.30
2019-01-02T21:49:08.358Z,-0.40
2019-01-02T21:51:38.743Z,-0.40
2019-01-02T21:54:09.266Z,-0.50
2019-01-02T21:56:39.783Z,-0.50
2019-01-02T21:59:10.160Z,-0.60
2019-01-02T22:01:40.762Z,-0.90
2019-01-02T22:04:12.083Z,-0.70
2019-01-02T22:06:42.650Z,-0.60
2019-01-02T22:09:13.214Z,-0.60
2019-01-02T22:11:43.672Z,-0.40
2019-01-02T22:14:14.126Z,-0.50
2019-01-02T22:16:44.606Z,-0.50
2019-01-02T22:19:15.081Z,-0.50
2019-01-02T22:21:45.585Z,-0.40
2019-01-02T22:24:16.094Z,-0.30
2019-01-02T22:26:47.553Z,-0.60
2019-01-02T22:29:18.071Z,-0.40
2019-01-02T22:31:48.477Z,-0.20
2019-01-02T22:34:18.946Z,-0.20
2019-01-02T22:36:49.335Z,-0.50
2019-01-02T22:39:19.740Z,-0.40
2019-01-02T22:41:50.324Z,-0.40
2019-01-02T22:44:20.730Z,-0.40
2019-01-02T22:46:51.219Z,-0.40
2019-01-02T22:49:21.746Z,-0.50
2019-01-02T22:51:52.277Z,-0.60
2019-01-02T22:54:22.735Z,-0.60
2019-01-02T22:56:53.203Z,-0.60
2019-01-02T22:59:23.669Z,-0.60
2019-01-02T23:01:55.869Z,-0.70
2019-01-02T23:04:27.967Z,-0.70
2019-01-02T23:07:00.116Z,-0.50
2019-01-02T23:09:32.143Z,-0.70
2019-01-02T23:12:07.355Z,-0.60
2019-01-02T23:14:57.336Z,-0.60
2019-01-02T23:17:35.511Z,-0.60
2019-01-02T23:20:17.653Z,-0.60
2019-01-02T23:22:52.933Z,-0.50
2019-01-02T23:25:33.798Z,-0.60
2019-01-02T23:28:22.000Z,-0.60
2019-01-02T23:30:54.563Z,-0.50
2019-01-02T23:33:44.405Z,-0.60
2019-01-02T23:36:31.257Z,-0.50
2019-01-02T23:39:03.396Z,-0.60
2019-01-02T23:41:41.169Z,-0.60
2019-01-02T23:44:29.635Z,-0.60
2019-01-02T23:47:13.321Z,-0.60
2019-01-02T23:49:51.277Z,-0.70
2019-01-02T23:52:23.350Z,-0.70
2019-01-02T23:54:58.015Z,-0.80
2019-01-02T23:57:35.644Z,-0.90
